sensor_id;sensor_type;location;lat;lon;timestamp;temperature;humidity
77056;SHT30;67471;44.918;8.614;2023-10-09T00:01:20;21.31;63.92
77056;SHT30;67471;44.918;8.614;2023-10-09T00:04:24;21.20;64.41
77056;SHT30;67471;44.918;8.614;2023-10-09T00:07:28;21.17;64.47
77056;SHT30;67471;44.918;8.614;2023-10-09T00:10:33;21.06;64.96
77056;SHT30;67471;44.918;8.614;2023-10-09T00:13:52;21.04;65.00
77056;SHT30;67471;44.918;8.614;2023-10-09T00:17:00;20.95;65.15
77056;SHT30;67471;44.918;8.614;2023-10-09T00:20:16;20.89;65.26
77056;SHT30;67471;44.918;8.614;2023-10-09T00:23:25;20.90;65.21
77056;SHT30;67471;44.918;8.614;2023-10-09T00:26:29;20.88;65.24
77056;SHT30;67471;44.918;8.614;2023-10-09T00:29:34;20.88;65.15
77056;SHT30;67471;44.918;8.614;2023-10-09T00:32:38;20.86;65.20
77056;SHT30;67471;44.918;8.614;2023-10-09T00:35:55;20.89;64.95
77056;SHT30;67471;44.918;8.614;2023-10-09T00:38:59;20.82;64.91
77056;SHT30;67471;44.918;8.614;2023-10-09T00:42:04;20.79;64.89
77056;SHT30;67471;44.918;8.614;2023-10-09T00:45:11;20.78;65.21
77056;SHT30;67471;44.918;8.614;2023-10-09T00:48:20;20.71;65.23
77056;SHT30;67471;44.918;8.614;2023-10-09T00:51:34;20.64;65.61
77056;SHT30;67471;44.918;8.614;2023-10-09T00:54:39;20.59;65.49
77056;SHT30;67471;44.918;8.614;2023-10-09T00:57:45;20.52;65.79
77056;SHT30;67471;44.918;8.614;2023-10-09T01:01:01;20.58;65.74
77056;SHT30;67471;44.918;8.614;2023-10-09T01:04:08;20.59;65.64
77056;SHT30;67471;44.918;8.614;2023-10-09T01:07:15;20.62;65.68
77056;SHT30;67471;44.918;8.614;2023-10-09T01:10:19;20.65;65.85
77056;SHT30;67471;44.918;8.614;2023-10-09T01:13:24;20.64;65.85
77056;SHT30;67471;44.918;8.614;2023-10-09T01:16:51;20.45;66.45
77056;SHT30;67471;44.918;8.614;2023-10-09T01:19:57;20.48;66.13
77056;SHT30;67471;44.918;8.614;2023-10-09T01:23:05;20.44;66.17
77056;SHT30;67471;44.918;8.614;2023-10-09T01:26:10;20.41;66.27
77056;SHT30;67471;44.918;8.614;2023-10-09T01:29:17;20.49;65.98
77056;SHT30;67471;44.918;8.614;2023-10-09T01:32:22;20.42;66.00
77056;SHT30;67471;44.918;8.614;2023-10-09T01:35:30;20.35;66.56
77056;SHT30;67471;44.918;8.614;2023-10-09T01:38:36;20.32;66.79
77056;SHT30;67471;44.918;8.614;2023-10-09T01:41:48;20.22;67.27
77056;SHT30;67471;44.918;8.614;2023-10-09T01:44:56;20.27;67.13
77056;SHT30;67471;44.918;8.614;2023-10-09T01:48:02;20.11;67.51
77056;SHT30;67471;44.918;8.614;2023-10-09T01:51:13;20.18;67.15
77056;SHT30;67471;44.918;8.614;2023-10-09T01:54:17;20.14;67.01
77056;SHT30;67471;44.918;8.614;2023-10-09T01:57:37;20.10;67.16
77056;SHT30;67471;44.918;8.614;2023-10-09T02:00:43;20.06;67.16
77056;SHT30;67471;44.918;8.614;2023-10-09T02:03:57;20.08;67.48
77056;SHT30;67471;44.918;8.614;2023-10-09T02:07:08;20.08;67.68
77056;SHT30;67471;44.918;8.614;2023-10-09T02:10:13;20.06;67.81
77056;SHT30;67471;44.918;8.614;2023-10-09T02:13:37;19.96;68.03
77056;SHT30;67471;44.918;8.614;2023-10-09T02:16:48;19.91;68.00
77056;SHT30;67471;44.918;8.614;2023-10-09T02:20:12;19.67;68.74
77056;SHT30;67471;44.918;8.614;2023-10-09T02:23:22;19.69;68.38
77056;SHT30;67471;44.918;8.614;2023-10-09T02:26:32;19.69;68.47
77056;SHT30;67471;44.918;8.614;2023-10-09T02:29:41;19.66;68.37
77056;SHT30;67471;44.918;8.614;2023-10-09T02:32:46;19.56;68.48
77056;SHT30;67471;44.918;8.614;2023-10-09T02:35:59;19.46;68.83
77056;SHT30;67471;44.918;8.614;2023-10-09T02:39:09;19.32;69.22
77056;SHT30;67471;44.918;8.614;2023-10-09T02:42:31;19.30;69.03
77056;SHT30;67471;44.918;8.614;2023-10-09T02:45:35;19.33;68.75
77056;SHT30;67471;44.918;8.614;2023-10-09T02:48:49;19.38;68.66
77056;SHT30;67471;44.918;8.614;2023-10-09T02:51:56;19.33;68.63
77056;SHT30;67471;44.918;8.614;2023-10-09T02:54:59;19.23;68.98
77056;SHT30;67471;44.918;8.614;2023-10-09T02:58:03;18.94;69.81
77056;SHT30;67471;44.918;8.614;2023-10-09T03:01:13;19.02;69.57
77056;SHT30;67471;44.918;8.614;2023-10-09T03:04:17;19.02;69.63
77056;SHT30;67471;44.918;8.614;2023-10-09T03:07:23;19.12;69.39
77056;SHT30;67471;44.918;8.614;2023-10-09T03:10:27;19.11;69.51
77056;SHT30;67471;44.918;8.614;2023-10-09T03:13:31;19.18;69.43
77056;SHT30;67471;44.918;8.614;2023-10-09T03:16:36;19.05;69.75
77056;SHT30;67471;44.918;8.614;2023-10-09T03:19:40;19.01;69.93
77056;SHT30;67471;44.918;8.614;2023-10-09T03:22:47;19.02;70.00
77056;SHT30;67471;44.918;8.614;2023-10-09T03:25:53;18.99;70.17
77056;SHT30;67471;44.918;8.614;2023-10-09T03:28:56;18.92;70.31
77056;SHT30;67471;44.918;8.614;2023-10-09T03:32:04;18.95;70.31
77056;SHT30;67471;44.918;8.614;2023-10-09T03:35:09;18.98;70.18
77056;SHT30;67471;44.918;8.614;2023-10-09T03:38:18;18.89;70.42
77056;SHT30;67471;44.918;8.614;2023-10-09T03:41:22;18.91;70.48
77056;SHT30;67471;44.918;8.614;2023-10-09T03:44:27;18.97;70.47
77056;SHT30;67471;44.918;8.614;2023-10-09T03:47:33;18.97;70.62
77056;SHT30;67471;44.918;8.614;2023-10-09T03:50:38;18.75;71.26
77056;SHT30;67471;44.918;8.614;2023-10-09T03:53:41;18.63;72.26
77056;SHT30;67471;44.918;8.614;2023-10-09T03:56:46;18.72;72.01
77056;SHT30;67471;44.918;8.614;2023-10-09T03:59:53;18.63;71.91
77056;SHT30;67471;44.918;8.614;2023-10-09T04:02:59;18.50;72.14
77056;SHT30;67471;44.918;8.614;2023-10-09T04:06:03;18.53;71.63
77056;SHT30;67471;44.918;8.614;2023-10-09T04:09:09;18.61;71.28
77056;SHT30;67471;44.918;8.614;2023-10-09T04:12:22;18.63;71.23
77056;SHT30;67471;44.918;8.614;2023-10-09T04:15:28;18.56;71.47
77056;SHT30;67471;44.918;8.614;2023-10-09T04:18:34;18.58;71.44
77056;SHT30;67471;44.918;8.614;2023-10-09T04:21:41;18.63;71.43
77056;SHT30;67471;44.918;8.614;2023-10-09T04:24:45;18.64;71.39
77056;SHT30;67471;44.918;8.614;2023-10-09T04:27:55;18.67;70.82
77056;SHT30;67471;44.918;8.614;2023-10-09T04:31:21;18.71;70.46
77056;SHT30;67471;44.918;8.614;2023-10-09T04:34:35;18.54;71.22
77056;SHT30;67471;44.918;8.614;2023-10-09T04:37:39;18.68;70.80
77056;SHT30;67471;44.918;8.614;2023-10-09T04:40:42;18.71;71.07
77056;SHT30;67471;44.918;8.614;2023-10-09T04:43:49;18.65;71.22
77056;SHT30;67471;44.918;8.614;2023-10-09T04:46:53;18.64;71.12
77056;SHT30;67471;44.918;8.614;2023-10-09T04:50:12;18.58;71.12
77056;SHT30;67471;44.918;8.614;2023-10-09T04:53:38;18.60;70.86
77056;SHT30;67471;44.918;8.614;2023-10-09T04:56:53;18.37;71.23
77056;SHT30;67471;44.918;8.614;2023-10-09T04:59:57;18.37;70.96
77056;SHT30;67471;44.918;8.614;2023-10-09T05:03:03;18.13;71.39
77056;SHT30;67471;44.918;8.614;2023-10-09T05:06:27;18.10;71.16
77056;SHT30;67471;44.918;8.614;2023-10-09T05:09:58;18.05;71.07
77056;SHT30;67471;44.918;8.614;2023-10-09T05:13:20;17.85;71.65
77056;SHT30;67471;44.918;8.614;2023-10-09T05:16:45;17.85;71.94
77056;SHT30;67471;44.918;8.614;2023-10-09T05:19:58;17.85;72.27
77056;SHT30;67471;44.918;8.614;2023-10-09T05:23:22;17.82;72.65
77056;SHT30;67471;44.918;8.614;2023-10-09T05:26:29;17.90;72.25
77056;SHT30;67471;44.918;8.614;2023-10-09T05:29:52;17.93;72.20
77056;SHT30;67471;44.918;8.614;2023-10-09T05:33:16;17.59;73.34
77056;SHT30;67471;44.918;8.614;2023-10-09T05:36:32;17.85;72.26
77056;SHT30;67471;44.918;8.614;2023-10-09T05:39:39;17.82;72.36
77056;SHT30;67471;44.918;8.614;2023-10-09T05:42:46;17.93;71.56
77056;SHT30;67471;44.918;8.614;2023-10-09T05:46:01;17.89;71.83
77056;SHT30;67471;44.918;8.614;2023-10-09T05:49:11;17.96;71.40
77056;SHT30;67471;44.918;8.614;2023-10-09T05:52:22;18.08;70.86
77056;SHT30;67471;44.918;8.614;2023-10-09T05:55:44;17.92;70.93
77056;SHT30;67471;44.918;8.614;2023-10-09T05:59:07;18.05;70.06
77056;SHT30;67471;44.918;8.614;2023-10-09T06:02:29;18.00;70.10
77056;SHT30;67471;44.918;8.614;2023-10-09T06:06:05;18.13;69.71
77056;SHT30;67471;44.918;8.614;2023-10-09T06:09:14;18.27;69.64
77056;SHT30;67471;44.918;8.614;2023-10-09T06:12:19;18.34;68.86
77056;SHT30;67471;44.918;8.614;2023-10-09T06:15:37;18.40;68.70
77056;SHT30;67471;44.918;8.614;2023-10-09T06:19:14;18.51;68.89
77056;SHT30;67471;44.918;8.614;2023-10-09T06:22:23;18.56;69.13
77056;SHT30;67471;44.918;8.614;2023-10-09T06:25:27;18.63;68.74
77056;SHT30;67471;44.918;8.614;2023-10-09T06:28:35;18.64;68.70
77056;SHT30;67471;44.918;8.614;2023-10-09T06:31:39;18.77;68.09
77056;SHT30;67471;44.918;8.614;2023-10-09T06:35:02;18.84;67.83
77056;SHT30;67471;44.918;8.614;2023-10-09T06:38:24;19.05;67.12
77056;SHT30;67471;44.918;8.614;2023-10-09T06:41:44;19.65;65.18
77056;SHT30;67471;44.918;8.614;2023-10-09T06:44:49;20.25;62.90
77056;SHT30;67471;44.918;8.614;2023-10-09T06:47:55;20.85;61.02
77056;SHT30;67471;44.918;8.614;2023-10-09T06:51:10;21.69;58.62
77056;SHT30;67471;44.918;8.614;2023-10-09T06:54:29;22.59;55.94
77056;SHT30;67471;44.918;8.614;2023-10-09T06:57:41;23.41;53.74
77056;SHT30;67471;44.918;8.614;2023-10-09T07:00:47;24.27;51.65
77056;SHT30;67471;44.918;8.614;2023-10-09T07:04:04;24.99;49.93
77056;SHT30;67471;44.918;8.614;2023-10-09T07:07:24;25.50;48.80
77056;SHT30;67471;44.918;8.614;2023-10-09T07:10:32;25.54;48.34
77056;SHT30;67471;44.918;8.614;2023-10-09T07:13:43;26.76;46.10
77056;SHT30;67471;44.918;8.614;2023-10-09T07:16:51;27.50;44.54
77056;SHT30;67471;44.918;8.614;2023-10-09T07:20:01;27.86;43.83
77056;SHT30;67471;44.918;8.614;2023-10-09T07:23:18;28.75;42.39
77056;SHT30;67471;44.918;8.614;2023-10-09T07:26:25;29.14;41.54
77056;SHT30;67471;44.918;8.614;2023-10-09T07:29:40;29.65;40.67
77056;SHT30;67471;44.918;8.614;2023-10-09T07:33:03;30.23;39.40
77056;SHT30;67471;44.918;8.614;2023-10-09T07:36:13;30.09;39.79
77056;SHT30;67471;44.918;8.614;2023-10-09T07:39:17;30.86;38.34
77056;SHT30;67471;44.918;8.614;2023-10-09T07:42:21;31.00;38.40
77056;SHT30;67471;44.918;8.614;2023-10-09T07:45:46;31.44;37.64
77056;SHT30;67471;44.918;8.614;2023-10-09T07:49:04;31.61;37.29
77056;SHT30;67471;44.918;8.614;2023-10-09T07:52:15;32.49;35.92
77056;SHT30;67471;44.918;8.614;2023-10-09T07:55:19;32.51;35.80
77056;SHT30;67471;44.918;8.614;2023-10-09T07:58:29;32.12;36.45
77056;SHT30;67471;44.918;8.614;2023-10-09T08:01:33;31.91;36.80
77056;SHT30;67471;44.918;8.614;2023-10-09T08:04:39;32.45;35.89
77056;SHT30;67471;44.918;8.614;2023-10-09T08:07:52;32.56;35.25
77056;SHT30;67471;44.918;8.614;2023-10-09T08:11:02;32.73;34.89
77056;SHT30;67471;44.918;8.614;2023-10-09T08:14:44;32.05;36.55
77056;SHT30;67471;44.918;8.614;2023-10-09T08:17:51;32.00;36.61
77056;SHT30;67471;44.918;8.614;2023-10-09T08:21:02;30.35;39.73
77056;SHT30;67471;44.918;8.614;2023-10-09T08:24:06;31.60;37.02
77056;SHT30;67471;44.918;8.614;2023-10-09T08:27:30;31.57;36.97
77056;SHT30;67471;44.918;8.614;2023-10-09T08:30:34;30.88;37.73
77056;SHT30;67471;44.918;8.614;2023-10-09T08:33:56;31.29;37.02
77056;SHT30;67471;44.918;8.614;2023-10-09T08:37:01;30.98;37.56
77056;SHT30;67471;44.918;8.614;2023-10-09T08:40:05;31.02;37.48
77056;SHT30;67471;44.918;8.614;2023-10-09T08:43:20;30.42;38.30
77056;SHT30;67471;44.918;8.614;2023-10-09T08:46:26;31.02;37.96
77056;SHT30;67471;44.918;8.614;2023-10-09T08:49:30;31.31;37.58
77056;SHT30;67471;44.918;8.614;2023-10-09T08:52:36;31.44;37.18
77056;SHT30;67471;44.918;8.614;2023-10-09T08:55:40;31.16;37.42
77056;SHT30;67471;44.918;8.614;2023-10-09T08:58:44;31.81;36.67
77056;SHT30;67471;44.918;8.614;2023-10-09T09:01:49;31.66;36.74
77056;SHT30;67471;44.918;8.614;2023-10-09T09:04:53;31.27;37.32
77056;SHT30;67471;44.918;8.614;2023-10-09T09:07:57;31.56;36.75
77056;SHT30;67471;44.918;8.614;2023-10-09T09:11:11;31.97;36.25
77056;SHT30;67471;44.918;8.614;2023-10-09T09:14:35;32.09;36.14
77056;SHT30;67471;44.918;8.614;2023-10-09T09:17:40;31.98;36.10
77056;SHT30;67471;44.918;8.614;2023-10-09T09:20:46;31.98;36.19
77056;SHT30;67471;44.918;8.614;2023-10-09T09:23:53;32.21;35.63
77056;SHT30;67471;44.918;8.614;2023-10-09T09:27:03;31.74;36.43
77056;SHT30;67471;44.918;8.614;2023-10-09T09:30:26;31.63;36.72
77056;SHT30;67471;44.918;8.614;2023-10-09T09:33:36;32.07;35.91
77056;SHT30;67471;44.918;8.614;2023-10-09T09:36:50;31.73;36.35
77056;SHT30;67471;44.918;8.614;2023-10-09T09:40:01;31.64;36.59
77056;SHT30;67471;44.918;8.614;2023-10-09T09:43:18;32.15;35.67
77056;SHT30;67471;44.918;8.614;2023-10-09T09:46:33;32.11;35.54
77056;SHT30;67471;44.918;8.614;2023-10-09T09:49:42;31.67;35.98
77056;SHT30;67471;44.918;8.614;2023-10-09T09:52:46;32.04;35.60
77056;SHT30;67471;44.918;8.614;2023-10-09T09:55:54;31.51;36.46
77056;SHT30;67471;44.918;8.614;2023-10-09T09:59:02;32.01;35.99
77056;SHT30;67471;44.918;8.614;2023-10-09T10:02:10;32.25;35.69
77056;SHT30;67471;44.918;8.614;2023-10-09T10:05:20;32.02;36.00
77056;SHT30;67471;44.918;8.614;2023-10-09T10:08:24;32.05;36.20
77056;SHT30;67471;44.918;8.614;2023-10-09T10:11:44;32.11;35.51
77056;SHT30;67471;44.918;8.614;2023-10-09T10:14:55;32.25;35.03
77056;SHT30;67471;44.918;8.614;2023-10-09T10:18:17;32.24;34.88
77056;SHT30;67471;44.918;8.614;2023-10-09T10:21:23;32.02;34.41
77056;SHT30;67471;44.918;8.614;2023-10-09T10:28:21;30.92;35.55
77056;SHT30;67471;44.918;8.614;2023-10-09T10:31:58;31.04;35.56
77056;SHT30;67471;44.918;8.614;2023-10-09T10:35:12;31.26;35.16
77056;SHT30;67471;44.918;8.614;2023-10-09T10:38:25;31.36;35.26
77056;SHT30;67471;44.918;8.614;2023-10-09T10:41:29;31.61;35.05
77056;SHT30;67471;44.918;8.614;2023-10-09T10:44:39;31.56;35.32
77056;SHT30;67471;44.918;8.614;2023-10-09T10:47:47;31.97;34.78
77056;SHT30;67471;44.918;8.614;2023-10-09T10:50:56;31.71;35.03
77056;SHT30;67471;44.918;8.614;2023-10-09T10:54:01;31.74;34.62
77056;SHT30;67471;44.918;8.614;2023-10-09T10:57:26;31.67;34.82
77056;SHT30;67471;44.918;8.614;2023-10-09T11:00:32;31.76;34.30
77056;SHT30;67471;44.918;8.614;2023-10-09T11:03:55;31.90;34.15
77056;SHT30;67471;44.918;8.614;2023-10-09T11:06:59;31.34;34.67
77056;SHT30;67471;44.918;8.614;2023-10-09T11:10:10;30.89;35.46
77056;SHT30;67471;44.918;8.614;2023-10-09T11:13:24;31.25;34.19
77056;SHT30;67471;44.918;8.614;2023-10-09T11:16:36;30.67;34.75
77056;SHT30;67471;44.918;8.614;2023-10-09T11:19:46;31.09;34.29
77056;SHT30;67471;44.918;8.614;2023-10-09T11:22:50;31.43;33.92
77056;SHT30;67471;44.918;8.614;2023-10-09T11:26:15;31.47;34.19
77056;SHT30;67471;44.918;8.614;2023-10-09T11:29:33;31.09;34.54
77056;SHT30;67471;44.918;8.614;2023-10-09T11:32:45;31.40;34.47
77056;SHT30;67471;44.918;8.614;2023-10-09T11:35:56;30.82;35.84
77056;SHT30;67471;44.918;8.614;2023-10-09T11:39:04;31.02;35.60
77056;SHT30;67471;44.918;8.614;2023-10-09T11:42:27;30.96;36.21
77056;SHT30;67471;44.918;8.614;2023-10-09T11:45:52;30.78;35.81
77056;SHT30;67471;44.918;8.614;2023-10-09T11:49:06;30.92;35.45
77056;SHT30;67471;44.918;8.614;2023-10-09T11:52:23;30.99;36.30
77056;SHT30;67471;44.918;8.614;2023-10-09T11:55:38;31.13;36.36
77056;SHT30;67471;44.918;8.614;2023-10-09T11:58:43;31.25;35.95
77056;SHT30;67471;44.918;8.614;2023-10-09T12:01:47;31.29;34.73
77056;SHT30;67471;44.918;8.614;2023-10-09T12:04:56;31.46;35.07
77056;SHT30;67471;44.918;8.614;2023-10-09T12:08:02;31.49;34.74
77056;SHT30;67471;44.918;8.614;2023-10-09T12:11:06;31.57;34.39
77056;SHT30;67471;44.918;8.614;2023-10-09T12:14:15;31.40;34.49
77056;SHT30;67471;44.918;8.614;2023-10-09T12:17:19;31.53;34.43
77056;SHT30;67471;44.918;8.614;2023-10-09T12:20:23;31.54;34.64
77056;SHT30;67471;44.918;8.614;2023-10-09T12:23:36;31.27;33.50
77056;SHT30;67471;44.918;8.614;2023-10-09T12:26:39;31.40;34.02
77056;SHT30;67471;44.918;8.614;2023-10-09T12:29:46;31.26;34.67
77056;SHT30;67471;44.918;8.614;2023-10-09T12:32:49;31.41;34.62
77056;SHT30;67471;44.918;8.614;2023-10-09T12:35:54;31.49;34.00
77056;SHT30;67471;44.918;8.614;2023-10-09T12:39:03;31.64;33.59
77056;SHT30;67471;44.918;8.614;2023-10-09T12:42:09;31.51;34.00
77056;SHT30;67471;44.918;8.614;2023-10-09T12:45:15;31.51;34.13
77056;SHT30;67471;44.918;8.614;2023-10-09T12:48:21;31.56;34.42
77056;SHT30;67471;44.918;8.614;2023-10-09T12:51:27;31.37;35.24
77056;SHT30;67471;44.918;8.614;2023-10-09T12:54:33;31.50;35.48
77056;SHT30;67471;44.918;8.614;2023-10-09T12:57:37;31.68;35.66
77056;SHT30;67471;44.918;8.614;2023-10-09T13:00:41;31.57;35.98
77056;SHT30;67471;44.918;8.614;2023-10-09T13:03:52;31.74;36.02
77056;SHT30;67471;44.918;8.614;2023-10-09T13:06:56;31.66;36.37
77056;SHT30;67471;44.918;8.614;2023-10-09T13:10:05;31.67;36.82
77056;SHT30;67471;44.918;8.614;2023-10-09T13:13:12;31.53;37.04
77056;SHT30;67471;44.918;8.614;2023-10-09T13:16:17;31.53;37.13
77056;SHT30;67471;44.918;8.614;2023-10-09T13:19:26;31.50;37.47
77056;SHT30;67471;44.918;8.614;2023-10-09T13:22:30;31.41;37.80
77056;SHT30;67471;44.918;8.614;2023-10-09T13:25:34;31.56;37.70
77056;SHT30;67471;44.918;8.614;2023-10-09T13:28:46;31.49;38.22
77056;SHT30;67471;44.918;8.614;2023-10-09T13:31:50;31.54;38.79
77056;SHT30;67471;44.918;8.614;2023-10-09T13:35:00;31.63;39.00
77056;SHT30;67471;44.918;8.614;2023-10-09T13:38:07;31.56;39.29
77056;SHT30;67471;44.918;8.614;2023-10-09T13:41:13;31.77;38.74
77056;SHT30;67471;44.918;8.614;2023-10-09T13:44:21;31.43;39.66
77056;SHT30;67471;44.918;8.614;2023-10-09T13:47:24;31.36;39.72
77056;SHT30;67471;44.918;8.614;2023-10-09T13:50:35;31.61;39.34
77056;SHT30;67471;44.918;8.614;2023-10-09T13:53:46;31.50;39.39
77056;SHT30;67471;44.918;8.614;2023-10-09T13:56:51;31.49;39.30
77056;SHT30;67471;44.918;8.614;2023-10-09T13:59:57;31.56;38.61
77056;SHT30;67471;44.918;8.614;2023-10-09T14:03:03;31.46;38.51
77056;SHT30;67471;44.918;8.614;2023-10-09T14:06:17;31.51;38.03
77056;SHT30;67471;44.918;8.614;2023-10-09T14:09:24;31.46;38.13
77056;SHT30;67471;44.918;8.614;2023-10-09T14:12:31;31.40;37.98
77056;SHT30;67471;44.918;8.614;2023-10-09T14:15:35;31.46;37.55
77056;SHT30;67471;44.918;8.614;2023-10-09T14:18:43;31.43;37.66
77056;SHT30;67471;44.918;8.614;2023-10-09T14:21:46;31.23;38.20
77056;SHT30;67471;44.918;8.614;2023-10-09T14:24:54;31.29;38.40
77056;SHT30;67471;44.918;8.614;2023-10-09T14:28:01;31.31;38.72
77056;SHT30;67471;44.918;8.614;2023-10-09T14:31:10;31.29;39.31
77056;SHT30;67471;44.918;8.614;2023-10-09T14:34:16;31.34;39.71
77056;SHT30;67471;44.918;8.614;2023-10-09T14:37:20;30.95;40.65
77056;SHT30;67471;44.918;8.614;2023-10-09T14:40:24;31.06;40.91
77056;SHT30;67471;44.918;8.614;2023-10-09T14:43:33;31.00;41.48
77056;SHT30;67471;44.918;8.614;2023-10-09T14:46:37;30.91;41.60
77056;SHT30;67471;44.918;8.614;2023-10-09T14:49:41;30.78;42.19
77056;SHT30;67471;44.918;8.614;2023-10-09T14:52:50;30.64;42.55
77056;SHT30;67471;44.918;8.614;2023-10-09T14:55:57;30.68;42.61
77056;SHT30;67471;44.918;8.614;2023-10-09T14:59:03;30.76;42.55
77056;SHT30;67471;44.918;8.614;2023-10-09T15:02:06;30.60;42.99
77056;SHT30;67471;44.918;8.614;2023-10-09T15:05:11;30.62;42.83
77056;SHT30;67471;44.918;8.614;2023-10-09T15:08:15;30.61;42.98
77056;SHT30;67471;44.918;8.614;2023-10-09T15:11:23;30.40;43.32
77056;SHT30;67471;44.918;8.614;2023-10-09T15:14:28;30.35;43.56
77056;SHT30;67471;44.918;8.614;2023-10-09T15:17:32;30.28;43.42
77056;SHT30;67471;44.918;8.614;2023-10-09T15:20:36;30.28;43.51
77056;SHT30;67471;44.918;8.614;2023-10-09T15:23:40;30.10;43.81
77056;SHT30;67471;44.918;8.614;2023-10-09T15:26:50;30.03;44.26
77056;SHT30;67471;44.918;8.614;2023-10-09T15:30:00;29.93;44.67
77056;SHT30;67471;44.918;8.614;2023-10-09T15:33:07;29.84;45.11
77056;SHT30;67471;44.918;8.614;2023-10-09T15:36:12;29.65;45.33
77056;SHT30;67471;44.918;8.614;2023-10-09T15:39:17;29.53;45.33
77056;SHT30;67471;44.918;8.614;2023-10-09T15:42:23;29.42;45.31
77056;SHT30;67471;44.918;8.614;2023-10-09T15:45:27;29.36;45.21
77056;SHT30;67471;44.918;8.614;2023-10-09T15:48:35;29.19;45.20
77056;SHT30;67471;44.918;8.614;2023-10-09T15:51:40;29.02;45.58
77056;SHT30;67471;44.918;8.614;2023-10-09T15:54:44;28.97;45.67
77056;SHT30;67471;44.918;8.614;2023-10-09T15:57:48;28.92;45.66
77056;SHT30;67471;44.918;8.614;2023-10-09T16:00:52;28.86;45.76
77056;SHT30;67471;44.918;8.614;2023-10-09T16:03:56;28.68;45.95
77056;SHT30;67471;44.918;8.614;2023-10-09T16:07:00;28.61;45.98
77056;SHT30;67471;44.918;8.614;2023-10-09T16:10:08;28.47;46.12
77056;SHT30;67471;44.918;8.614;2023-10-09T16:13:13;28.30;46.29
77056;SHT30;67471;44.918;8.614;2023-10-09T16:16:26;28.22;46.35
77056;SHT30;67471;44.918;8.614;2023-10-09T16:19:30;28.05;46.65
77056;SHT30;67471;44.918;8.614;2023-10-09T16:22:36;27.61;47.64
77056;SHT30;67471;44.918;8.614;2023-10-09T16:25:40;27.48;47.72
77056;SHT30;67471;44.918;8.614;2023-10-09T16:28:44;27.41;47.70
77056;SHT30;67471;44.918;8.614;2023-10-09T16:31:48;27.27;47.95
77056;SHT30;67471;44.918;8.614;2023-10-09T16:34:52;27.15;48.27
77056;SHT30;67471;44.918;8.614;2023-10-09T16:37:57;27.10;48.28
77056;SHT30;67471;44.918;8.614;2023-10-09T16:41:01;26.94;48.50
77056;SHT30;67471;44.918;8.614;2023-10-09T16:44:11;26.76;48.57
77056;SHT30;67471;44.918;8.614;2023-10-09T16:47:14;26.73;48.55
77056;SHT30;67471;44.918;8.614;2023-10-09T16:50:21;26.66;48.46
77056;SHT30;67471;44.918;8.614;2023-10-09T16:53:32;26.48;48.94
77056;SHT30;67471;44.918;8.614;2023-10-09T16:56:39;26.44;48.89
77056;SHT30;67471;44.918;8.614;2023-10-09T16:59:46;26.45;48.98
77056;SHT30;67471;44.918;8.614;2023-10-09T17:02:52;26.25;49.44
77056;SHT30;67471;44.918;8.614;2023-10-09T17:05:57;26.20;49.65
77056;SHT30;67471;44.918;8.614;2023-10-09T17:09:07;26.09;49.71
77056;SHT30;67471;44.918;8.614;2023-10-09T17:12:11;26.11;49.54
77056;SHT30;67471;44.918;8.614;2023-10-09T17:15:16;25.90;50.07
77056;SHT30;67471;44.918;8.614;2023-10-09T17:18:22;25.67;50.70
77056;SHT30;67471;44.918;8.614;2023-10-09T17:21:34;25.70;50.67
77056;SHT30;67471;44.918;8.614;2023-10-09T17:24:41;25.67;50.68
77056;SHT30;67471;44.918;8.614;2023-10-09T17:27:44;25.64;50.73
77056;SHT30;67471;44.918;8.614;2023-10-09T17:30:48;25.53;50.87
77056;SHT30;67471;44.918;8.614;2023-10-09T17:33:52;25.33;51.42
77056;SHT30;67471;44.918;8.614;2023-10-09T17:37:00;25.32;51.87
77056;SHT30;67471;44.918;8.614;2023-10-09T17:40:08;25.23;52.17
77056;SHT30;67471;44.918;8.614;2023-10-09T17:43:12;25.22;52.87
77056;SHT30;67471;44.918;8.614;2023-10-09T17:46:19;25.12;54.61
77056;SHT30;67471;44.918;8.614;2023-10-09T17:49:23;24.82;55.78
77056;SHT30;67471;44.918;8.614;2023-10-09T17:52:28;24.64;57.05
77056;SHT30;67471;44.918;8.614;2023-10-09T17:55:34;24.69;56.98
77056;SHT30;67471;44.918;8.614;2023-10-09T17:58:39;24.63;57.47
77056;SHT30;67471;44.918;8.614;2023-10-09T18:01:47;24.55;57.80
77056;SHT30;67471;44.918;8.614;2023-10-09T18:04:51;24.53;58.05
77056;SHT30;67471;44.918;8.614;2023-10-09T18:07:58;24.31;59.19
77056;SHT30;67471;44.918;8.614;2023-10-09T18:11:05;24.38;59.04
77056;SHT30;67471;44.918;8.614;2023-10-09T18:14:10;24.30;59.36
77056;SHT30;67471;44.918;8.614;2023-10-09T18:17:18;24.24;59.40
77056;SHT30;67471;44.918;8.614;2023-10-09T18:20:23;24.02;60.03
77056;SHT30;67471;44.918;8.614;2023-10-09T18:23:27;23.97;60.15
77056;SHT30;67471;44.918;8.614;2023-10-09T18:26:32;23.86;60.55
77056;SHT30;67471;44.918;8.614;2023-10-09T18:29:38;23.82;60.70
77056;SHT30;67471;44.918;8.614;2023-10-09T18:32:44;23.82;60.80
77056;SHT30;67471;44.918;8.614;2023-10-09T18:35:48;23.83;60.69
77056;SHT30;67471;44.918;8.614;2023-10-09T18:38:52;23.86;60.89
77056;SHT30;67471;44.918;8.614;2023-10-09T18:41:56;23.77;61.42
77056;SHT30;67471;44.918;8.614;2023-10-09T18:45:00;23.67;61.54
77056;SHT30;67471;44.918;8.614;2023-10-09T18:48:04;23.67;61.85
77056;SHT30;67471;44.918;8.614;2023-10-09T18:51:15;23.62;62.11
77056;SHT30;67471;44.918;8.614;2023-10-09T18:54:22;23.51;62.23
77056;SHT30;67471;44.918;8.614;2023-10-09T18:57:28;23.55;62.28
77056;SHT30;67471;44.918;8.614;2023-10-09T19:00:34;23.58;62.30
77056;SHT30;67471;44.918;8.614;2023-10-09T19:03:44;23.48;62.42
77056;SHT30;67471;44.918;8.614;2023-10-09T19:06:52;23.41;62.74
77056;SHT30;67471;44.918;8.614;2023-10-09T19:09:56;23.21;63.59
77056;SHT30;67471;44.918;8.614;2023-10-09T19:13:00;23.12;63.94
77056;SHT30;67471;44.918;8.614;2023-10-09T19:16:10;23.17;64.04
77056;SHT30;67471;44.918;8.614;2023-10-09T19:19:15;23.07;64.34
77056;SHT30;67471;44.918;8.614;2023-10-09T19:22:18;23.05;64.53
77056;SHT30;67471;44.918;8.614;2023-10-09T19:25:23;23.01;64.93
77056;SHT30;67471;44.918;8.614;2023-10-09T19:28:30;22.78;65.63
77056;SHT30;67471;44.918;8.614;2023-10-09T19:31:34;22.70;66.10
77056;SHT30;67471;44.918;8.614;2023-10-09T19:34:39;22.71;66.04
77056;SHT30;67471;44.918;8.614;2023-10-09T19:37:46;22.80;65.94
77056;SHT30;67471;44.918;8.614;2023-10-09T19:40:50;22.63;66.42
77056;SHT30;67471;44.918;8.614;2023-10-09T19:43:56;22.71;66.23
77056;SHT30;67471;44.918;8.614;2023-10-09T19:46:59;22.60;66.62
77056;SHT30;67471;44.918;8.614;2023-10-09T19:50:03;22.45;67.15
77056;SHT30;67471;44.918;8.614;2023-10-09T19:53:07;22.52;66.89
77056;SHT30;67471;44.918;8.614;2023-10-09T19:56:11;22.53;67.12